Terminal Aerodrome Forecast
Issued by NWS

Home | Current Version | Previous Version | Text Only | Print | Product List | Glossary On
Versions: 1 2 3 4 5 6 7 8 9 10 11 12
000
FTUS41 KBTV 231120
TAFMPV
TAF
KMPV 231120Z 2312/2412 32012G22KT P6SM SKC
     FM232000 27008G15KT P6SM SCT120
     FM240200 21007KT P6SM BKN120=

USA.gov is the U.S. government's official web portal to all federal, state and local government web resources and services.